Time;durP1;ratioP1;P1;durP2;ratioP2;P2;SDS_P1;SDS_P2;PMS_P1;PMS_P2;Temp;Humidity;BMP_temperature;BMP_pressure;BME280_temperature;BME280_humidity;BME280_pressure;Samples;Min_cycle;Max_cycle;Signal;HPM_P1;HPM_P2
2024/01/28 00:02:43;;;;;;;;;;;;;;;-13.86;52.39;97910.00;6320557;28;20030;-67
2024/01/28 00:05:47;;;;;;;;;;;;;;;-13.93;52.74;97897.84;6319639;28;19973;-67
2024/01/28 00:08:48;;;;;;;;;;;;;;;-13.99;52.78;97902.59;6320227;28;19924;-67
2024/01/28 00:11:49;;;;;;;;;;;;;;;-14.05;52.32;97899.00;6320307;28;19930;-67
2024/01/28 00:14:50;;;;;;;;;;;;;;;-14.09;52.45;97902.19;6319533;28;19924;-66
2024/01/28 00:17:55;;;;;;;;;;;;;;;-14.13;52.56;97907.88;6320184;28;19930;-66
2024/01/28 00:20:59;;;;;;;;;;;;;;;-14.19;52.67;97900.00;6319892;28;19928;-67
2024/01/28 00:24:04;;;;;;;;;;;;;;;-14.26;53.13;97892.94;6320093;28;19924;-67
2024/01/28 00:27:07;;;;;;;;;;;;;;;-14.31;52.93;97899.44;6318960;28;19944;-67
2024/01/28 00:30:12;;;;;;;;;;;;;;;-14.35;53.24;97897.53;6319933;28;20279;-67
2024/01/28 00:33:13;;;;;;;;;;;;;;;-14.38;53.15;97900.78;6319654;28;19959;-67
2024/01/28 00:36:17;;;;;;;;;;;;;;;-14.44;53.10;97892.91;6319793;28;19924;-68
2024/01/28 00:39:18;;;;;;;;;;;;;;;-14.52;52.69;97895.09;6318858;28;20488;-67
2024/01/28 00:42:20;;;;;;;;;;;;;;;-14.61;53.11;97894.63;6318939;28;19924;-66
2024/01/28 00:45:24;;;;;;;;;;;;;;;-14.65;53.10;97897.81;6319640;28;19924;-66
2024/01/28 00:48:25;;;;;;;;;;;;;;;-14.71;52.77;97897.53;6319610;28;19923;-67
2024/01/28 00:51:26;;;;;;;;;;;;;;;-14.73;52.97;97894.03;6318645;28;19931;-67
2024/01/28 00:54:28;;;;;;;;;;;;;;;-14.76;53.13;97899.81;6319251;28;19923;-67
2024/01/28 00:57:30;;;;;;;;;;;;;;;-14.78;53.01;97898.00;6318394;28;20427;-65
2024/01/28 01:00:32;;;;;;;;;;;;;;;-14.81;52.63;97900.38;6318583;28;20018;-67
2024/01/28 01:03:33;;;;;;;;;;;;;;;-14.84;52.97;97900.22;6319005;28;20312;-67
2024/01/28 01:06:43;;;;;;;;;;;;;;;-14.87;53.27;97900.06;6319310;28;20061;-67
2024/01/28 01:09:44;;;;;;;;;;;;;;;-14.89;53.20;97909.22;6318912;28;19943;-68
2024/01/28 01:12:48;;;;;;;;;;;;;;;-14.94;52.47;97903.94;6319140;28;19924;-67
2024/01/28 01:15:51;;;;;;;;;;;;;;;-15.00;52.65;97899.47;6301208;28;19924;-66
2024/01/28 01:18:52;;;;;;;;;;;;;;;-15.03;53.63;97894.25;6335761;28;19924;-67
2024/01/28 01:21:53;;;;;;;;;;;;;;;-15.02;53.35;97895.97;6344261;28;19924;-67
2024/01/28 01:24:54;;;;;;;;;;;;;;;-15.03;53.31;97889.19;6343474;28;20469;-67
2024/01/28 01:28:00;;;;;;;;;;;;;;;-15.08;52.86;97888.09;6344321;28;19924;-67
2024/01/28 01:31:04;;;;;;;;;;;;;;;-15.16;53.03;97886.84;6344115;28;20393;-68
2024/01/28 01:34:07;;;;;;;;;;;;;;;-15.22;53.32;97892.44;6342966;28;19924;-67
2024/01/28 01:37:08;;;;;;;;;;;;;;;-15.28;52.92;97896.28;6344075;28;20438;-67
2024/01/28 01:40:14;;;;;;;;;;;;;;;-15.37;53.18;97901.72;6344054;28;19946;-66
2024/01/28 01:43:17;;;;;;;;;;;;;;;-15.40;53.03;97901.56;6344064;28;19928;-67
2024/01/28 01:46:18;;;;;;;;;;;;;;;-15.44;53.16;97889.59;6344057;28;19924;-66
2024/01/28 01:49:19;;;;;;;;;;;;;;;-15.49;52.82;97894.38;6343088;28;19934;-67
2024/01/28 01:52:21;;;;;;;;;;;;;;;-15.56;52.78;97899.06;6343938;28;19924;-68
2024/01/28 01:55:22;;;;;;;;;;;;;;;-15.61;52.82;97898.78;6343572;28;19924;-67
2024/01/28 01:58:24;;;;;;;;;;;;;;;-15.65;53.05;97901.94;6324105;28;20030;-67
2024/01/28 02:01:29;;;;;;;;;;;;;;;-15.68;52.99;97899.28;6342971;28;19935;-67
2024/01/28 02:04:32;;;;;;;;;;;;;;;-15.73;53.02;97906.63;6343951;28;20542;-66
2024/01/28 02:07:33;;;;;;;;;;;;;;;-15.76;52.86;97900.56;6342664;28;19935;-67
2024/01/28 02:10:34;;;;;;;;;;;;;;;-15.78;53.11;97897.06;6342836;28;19969;-67
2024/01/28 02:13:35;;;;;;;;;;;;;;;-15.82;53.00;97905.25;6343363;28;20026;-67
2024/01/28 02:16:36;;;;;;;;;;;;;;;-15.87;52.87;97908.41;6342692;28;19931;-67
2024/01/28 02:19:39;;;;;;;;;;;;;;;-15.91;52.87;97901.44;6342522;28;20409;-67
2024/01/28 02:22:40;;;;;;;;;;;;;;;-15.96;52.96;97902.84;6343067;28;19930;-67
2024/01/28 02:25:41;;;;;;;;;;;;;;;-15.98;53.04;97898.53;6342898;28;20440;-67
2024/01/28 02:28:42;;;;;;;;;;;;;;;-15.97;52.87;97903.63;6342511;28;19923;-65
2024/01/28 02:31:45;;;;;;;;;;;;;;;-15.98;52.92;97908.59;6344658;28;19931;-67
2024/01/28 02:34:50;;;;;;;;;;;;;;;-16.05;52.89;97902.34;6347985;28;19924;-67
2024/01/28 02:37:53;;;;;;;;;;;;;;;-16.09;52.70;97900.44;6347924;28;20420;-66
2024/01/28 02:40:57;;;;;;;;;;;;;;;-16.11;52.69;97902.00;6347969;28;20404;-68
2024/01/28 02:43:58;;;;;;;;;;;;;;;-16.16;52.66;97908.44;6346460;28;20026;-66
2024/01/28 02:47:02;;;;;;;;;;;;;;;-16.24;52.77;97905.53;6347742;28;20080;-67
2024/01/28 02:50:03;;;;;;;;;;;;;;;-16.27;52.50;97910.41;6346585;28;20297;-66
2024/01/28 02:53:05;;;;;;;;;;;;;;;-16.30;52.65;97908.56;6346525;28;19924;-66
2024/01/28 02:56:06;;;;;;;;;;;;;;;-16.33;52.66;97910.91;6346799;28;20026;-67
2024/01/28 02:59:13;;;;;;;;;;;;;;;-16.33;52.78;97910.91;6347575;28;20002;-67
2024/01/28 03:02:17;;;;;;;;;;;;;;;-16.37;52.71;97909.00;6328910;28;20522;-67
2024/01/28 03:05:18;;;;;;;;;;;;;;;-16.41;52.67;97907.09;6346515;28;20041;-67
2024/01/28 03:08:22;;;;;;;;;;;;;;;-16.43;52.70;97906.13;6347067;28;20400;-68
2024/01/28 03:11:23;;;;;;;;;;;;;;;-16.42;52.67;97901.97;6346310;28;19923;-66
2024/01/28 03:14:24;;;;;;;;;;;;;;;-16.44;52.60;97911.06;6347077;28;20000;-68
2024/01/28 03:17:27;;;;;;;;;;;;;;;-16.44;52.88;97906.94;6342361;28;19924;-68
2024/01/28 03:20:30;;;;;;;;;;;;;;;-16.44;52.67;97901.91;6320717;28;20460;-67
2024/01/28 03:23:32;;;;;;;;;;;;;;;-16.47;52.36;97915.94;6320619;28;19930;-66
2024/01/28 03:26:37;;;;;;;;;;;;;;;-16.51;52.58;97909.88;6321331;28;19928;-67
2024/01/28 03:29:40;;;;;;;;;;;;;;;-16.50;52.66;97915.78;6320740;28;20030;-67
2024/01/28 03:32:44;;;;;;;;;;;;;;;-16.50;52.71;97906.56;6303126;28;19946;-66
2024/01/28 03:35:46;;;;;;;;;;;;;;;-16.50;52.48;97896.47;6303143;28;19931;-67
2024/01/28 03:38:53;;;;;;;;;;;;;;;-16.54;52.48;97914.75;6320501;28;20007;-67
2024/01/28 03:41:54;;;;;;;;;;;;;;;-16.59;52.59;97921.16;6320424;28;19931;-67
2024/01/28 03:44:58;;;;;;;;;;;;;;;-16.60;52.57;97914.41;6320883;28;20036;-66
2024/01/28 03:48:01;;;;;;;;;;;;;;;-16.61;52.89;97917.72;6320064;28;20291;-67
2024/01/28 03:51:02;;;;;;;;;;;;;;;-16.63;52.39;97929.34;6320954;28;20018;-67
2024/01/28 03:54:04;;;;;;;;;;;;;;;-16.65;52.65;97935.94;6319473;28;19936;-67
2024/01/28 03:57:10;;;;;;;;;;;;;;;-16.66;52.51;97930.03;6320703;28;19923;-67
2024/01/28 04:00:13;;;;;;;;;;;;;;;-16.65;52.22;97928.38;6320525;28;19924;-68
2024/01/28 04:03:14;;;;;;;;;;;;;;;-16.65;52.53;97920.81;6319701;28;19924;-66
2024/01/28 04:06:17;;;;;;;;;;;;;;;-16.63;52.47;97925.16;6320252;28;20018;-67
2024/01/28 04:09:20;;;;;;;;;;;;;;;-16.59;52.16;97931.22;6320066;28;19924;-67
2024/01/28 04:12:22;;;;;;;;;;;;;;;-16.58;52.23;97938.03;6319088;28;19931;-66
2024/01/28 04:15:26;;;;;;;;;;;;;;;-16.56;52.21;97938.97;6320151;28;20409;-66
2024/01/28 04:18:29;;;;;;;;;;;;;;;-16.50;52.00;97936.78;6333878;28;20113;-68
2024/01/28 04:21:32;;;;;;;;;;;;;;;-16.42;51.84;97935.56;6344428;28;19923;-67
2024/01/28 04:24:33;;;;;;;;;;;;;;;-16.35;51.80;97935.16;6344073;28;19927;-69
2024/01/28 04:27:39;;;;;;;;;;;;;;;-16.24;51.68;97938.28;6345321;28;19986;-67
2024/01/28 04:30:40;;;;;;;;;;;;;;;-16.13;51.49;97938.88;6344446;28;19920;-68
2024/01/28 04:33:43;;;;;;;;;;;;;;;-16.00;51.91;97941.28;6345192;28;19925;-68
2024/01/28 04:36:47;;;;;;;;;;;;;;;-15.83;51.40;97942.19;6345000;28;20069;-67
2024/01/28 04:39:50;;;;;;;;;;;;;;;-15.70;51.10;97941.22;6344174;28;20754;-67
2024/01/28 04:42:51;;;;;;;;;;;;;;;-15.60;51.48;97943.41;6344367;28;20313;-67
2024/01/28 04:45:54;;;;;;;;;;;;;;;-15.55;51.10;97934.44;6345330;28;19923;-67
2024/01/28 04:48:56;;;;;;;;;;;;;;;-15.49;50.83;97942.31;6344810;28;19924;-67
2024/01/28 04:51:59;;;;;;;;;;;;;;;-15.40;50.65;97937.78;6343808;28;20411;-68
2024/01/28 04:55:02;;;;;;;;;;;;;;;-15.29;50.80;97929.91;6343547;28;19931;-67
2024/01/28 04:58:09;;;;;;;;;;;;;;;-15.15;50.05;97934.00;6344229;28;19931;-67
2024/01/28 05:01:19;;;;;;;;;;;;;;;-15.05;50.37;97936.22;6344321;28;20022;-66
2024/01/28 05:04:21;;;;;;;;;;;;;;;-14.93;50.51;97934.31;6343704;28;19923;-67
2024/01/28 05:07:22;;;;;;;;;;;;;;;-14.82;50.34;97939.91;6343470;28;19924;-68
2024/01/28 05:10:24;;;;;;;;;;;;;;;-14.66;49.77;97941.56;6343876;28;19946;-67
2024/01/28 05:13:25;;;;;;;;;;;;;;;-14.47;50.06;97944.16;6325767;28;19924;-67
2024/01/28 05:16:29;;;;;;;;;;;;;;;-14.30;49.83;97944.13;6344208;28;19931;-67
2024/01/28 05:19:32;;;;;;;;;;;;;;;-14.17;49.79;97953.19;6344364;28;19927;-67
2024/01/28 05:22:38;;;;;;;;;;;;;;;-14.08;49.42;97954.47;6344262;28;19924;-67
2024/01/28 05:25:39;;;;;;;;;;;;;;;-13.89;49.30;97955.38;6343413;28;19930;-66
2024/01/28 05:28:41;;;;;;;;;;;;;;;-13.68;49.08;97955.50;6343185;28;19968;-67
2024/01/28 05:31:42;;;;;;;;;;;;;;;-13.42;49.31;97954.19;6344273;28;19935;-67
2024/01/28 05:34:43;;;;;;;;;;;;;;;-13.16;49.02;97953.66;6343011;28;20420;-67
2024/01/28 05:37:44;;;;;;;;;;;;;;;-12.88;48.88;97957.41;6342977;28;20401;-67
2024/01/28 05:40:45;;;;;;;;;;;;;;;-12.62;48.67;97957.66;6342311;28;20023;-69
2024/01/28 05:43:50;;;;;;;;;;;;;;;-12.39;48.25;97967.13;6343871;28;19924;-67
2024/01/28 05:46:53;;;;;;;;;;;;;;;-12.22;48.21;97963.63;6343220;28;19930;-67
2024/01/28 05:49:57;;;;;;;;;;;;;;;-12.00;47.91;97956.88;6343881;28;19924;-67
2024/01/28 05:52:58;;;;;;;;;;;;;;;-11.76;47.91;97965.44;6343034;28;19924;-67
2024/01/28 05:56:01;;;;;;;;;;;;;;;-11.55;47.77;97967.97;6343936;28;20328;-68
2024/01/28 05:59:04;;;;;;;;;;;;;;;-11.34;47.60;97965.38;6342931;28;19930;-67
2024/01/28 06:02:07;;;;;;;;;;;;;;;-11.08;47.64;97960.41;6343909;28;19920;-67
2024/01/28 06:05:11;;;;;;;;;;;;;;;-10.68;47.54;97966.94;6344717;28;20025;-67
2024/01/28 06:08:16;;;;;;;;;;;;;;;-10.36;47.37;97962.09;6348379;28;20360;-68
2024/01/28 06:11:17;;;;;;;;;;;;;;;-10.02;46.97;97957.31;6347645;28;19923;-67
2024/01/28 06:14:21;;;;;;;;;;;;;;;-9.56;46.72;97957.91;6348021;28;19924;-67
2024/01/28 06:17:24;;;;;;;;;;;;;;;-9.05;46.94;97968.81;6347151;28;20305;-66
2024/01/28 06:20:27;;;;;;;;;;;;;;;-8.48;45.88;97960.22;6347376;28;20323;-68
2024/01/28 06:23:29;;;;;;;;;;;;;;;-8.02;45.58;97960.53;6347048;28;19924;-67
2024/01/28 06:26:37;;;;;;;;;;;;;;;-7.64;45.39;97960.59;6347916;28;19923;-69
2024/01/28 06:29:40;;;;;;;;;;;;;;;-7.36;44.68;97967.22;6347116;28;20425;-67
2024/01/28 06:32:41;;;;;;;;;;;;;;;-6.94;45.46;97963.91;6346719;28;19930;-69
2024/01/28 06:35:42;;;;;;;;;;;;;;;-6.57;44.44;97965.50;6347188;28;19924;-67
2024/01/28 06:38:45;;;;;;;;;;;;;;;-6.20;44.42;97962.00;6346816;28;19924;-68
2024/01/28 06:41:48;;;;;;;;;;;;;;;-5.80;43.44;97965.22;6329677;28;19946;-68
2024/01/28 06:44:52;;;;;;;;;;;;;;;-5.53;43.74;97969.94;6347958;28;19923;-68
2024/01/28 06:47:54;;;;;;;;;;;;;;;-4.65;43.11;97958.34;6346948;28;19923;-68
2024/01/28 06:50:55;;;;;;;;;;;;;;;-2.71;41.04;97970.38;6346729;28;20018;-68
2024/01/28 06:53:59;;;;;;;;;;;;;;;-0.12;38.09;97972.13;6347343;28;19928;-67
2024/01/28 06:57:00;;;;;;;;;;;;;;;2.65;35.30;97972.75;6346692;28;19927;-68
2024/01/28 07:00:04;;;;;;;;;;;;;;;5.44;31.05;97966.84;6347174;28;19924;-67
2024/01/28 07:03:05;;;;;;;;;;;;;;;7.69;30.07;97979.03;6346174;28;19923;-68
2024/01/28 07:06:06;;;;;;;;;;;;;;;9.54;27.06;97960.41;6345970;28;20324;-67
2024/01/28 07:09:08;;;;;;;;;;;;;;;11.33;26.16;97969.63;6345819;28;20308;-68
2024/01/28 07:12:13;;;;;;;;;;;;;;;12.54;22.96;97969.38;6347082;28;20324;-68
2024/01/28 07:15:14;;;;;;;;;;;;;;;13.44;24.47;97963.38;6346335;28;19930;-68
2024/01/28 07:18:15;;;;;;;;;;;;;;;14.60;23.16;97959.84;6333714;28;20041;-68
2024/01/28 07:21:18;;;;;;;;;;;;;;;15.64;23.70;97952.97;6302758;28;19924;-68
2024/01/28 07:24:21;;;;;;;;;;;;;;;16.71;22.55;97949.06;6320085;28;20014;-68
2024/01/28 07:27:24;;;;;;;;;;;;;;;17.85;20.63;97944.97;6321564;28;19924;-69
2024/01/28 07:30:28;;;;;;;;;;;;;;;18.95;21.11;97945.19;6321370;28;20313;-68
2024/01/28 07:33:34;;;;;;;;;;;;;;;19.78;21.51;97946.28;6321162;28;20291;-69
2024/01/28 07:36:37;;;;;;;;;;;;;;;20.47;19.83;97934.97;6320112;28;19924;-69
2024/01/28 07:39:40;;;;;;;;;;;;;;;21.22;20.79;97933.56;6320787;28;19940;-69
2024/01/28 07:42:42;;;;;;;;;;;;;;;21.85;19.66;97928.59;6320173;28;20429;-69
2024/01/28 07:45:45;;;;;;;;;;;;;;;22.32;19.43;97927.78;6320027;28;19930;-68
2024/01/28 07:48:51;;;;;;;;;;;;;;;22.67;18.59;97926.19;6320685;28;19924;-69
2024/01/28 07:51:57;;;;;;;;;;;;;;;23.17;20.81;97934.66;6319954;28;19924;-69
2024/01/28 07:54:58;;;;;;;;;;;;;;;23.53;18.27;97918.53;6319241;28;19924;-68
2024/01/28 07:58:00;;;;;;;;;;;;;;;23.84;18.12;97918.13;6301669;28;20112;-68
2024/01/28 08:01:05;;;;;;;;;;;;;;;24.25;20.84;97923.75;6320319;28;20401;-68
2024/01/28 08:04:08;;;;;;;;;;;;;;;24.50;15.18;97928.28;6320385;28;19980;-69
2024/01/28 08:07:09;;;;;;;;;;;;;;;24.59;20.29;97921.06;6320302;28;20424;-67
2024/01/28 08:10:10;;;;;;;;;;;;;;;24.74;14.63;97918.59;6319299;28;19924;-68
2024/01/28 08:13:12;;;;;;;;;;;;;;;25.07;15.17;97914.13;6318875;28;19940;-68
2024/01/28 08:16:15;;;;;;;;;;;;;;;25.37;18.09;97919.94;6320256;28;19943;-69
2024/01/28 08:19:19;;;;;;;;;;;;;;;25.67;14.21;97916.56;6340181;28;19928;-69
2024/01/28 08:22:24;;;;;;;;;;;;;;;25.61;12.42;97913.69;6345248;28;19931;-67
2024/01/28 08:25:25;;;;;;;;;;;;;;;25.50;18.30;97910.31;6345391;28;20262;-69
2024/01/28 08:28:31;;;;;;;;;;;;;;;25.86;18.46;97912.69;6345073;28;19923;-68
2024/01/28 08:31:36;;;;;;;;;;;;;;;26.13;16.24;97910.63;6344909;28;19923;-68
2024/01/28 08:34:37;;;;;;;;;;;;;;;25.81;17.54;97912.34;6344944;28;20010;-69
2024/01/28 08:37:38;;;;;;;;;;;;;;;25.59;18.05;97907.63;6325987;28;19923;-69
2024/01/28 08:40:41;;;;;;;;;;;;;;;25.72;17.91;97908.81;6344765;28;19924;-69
2024/01/28 08:43:45;;;;;;;;;;;;;;;25.91;17.95;97904.09;6344361;28;19923;-69
2024/01/28 08:46:49;;;;;;;;;;;;;;;25.97;15.46;97903.41;6344550;28;19946;-68
2024/01/28 08:49:50;;;;;;;;;;;;;;;26.12;17.37;97908.94;6344596;28;20061;-70
2024/01/28 08:52:52;;;;;;;;;;;;;;;26.30;16.69;97906.88;6343862;28;19931;-69
2024/01/28 08:55:56;;;;;;;;;;;;;;;26.11;16.71;97901.88;6344347;28;19923;-69
2024/01/28 08:59:00;;;;;;;;;;;;;;;25.86;14.35;97896.53;6343893;28;20216;-68
2024/01/28 09:02:03;;;;;;;;;;;;;;;25.64;13.40;97905.28;6343365;28;19930;-68
2024/01/28 09:05:10;;;;;;;;;;;;;;;25.47;14.30;97891.81;6344093;28;20436;-70
2024/01/28 09:08:11;;;;;;;;;;;;;;;25.33;16.73;97891.63;6344492;28;19923;-69
2024/01/28 09:11:14;;;;;;;;;;;;;;;25.34;16.68;97894.19;6344179;28;19924;-68
2024/01/28 09:14:20;;;;;;;;;;;;;;;25.45;16.54;97890.28;6344167;28;19924;-69
2024/01/28 09:17:24;;;;;;;;;;;;;;;25.30;16.64;97890.97;6343482;28;19924;-69
2024/01/28 09:20:29;;;;;;;;;;;;;;;25.08;16.31;97894.28;6344077;28;19920;-68
2024/01/28 09:23:33;;;;;;;;;;;;;;;24.72;16.54;97894.53;6344195;28;20339;-69
2024/01/28 09:26:38;;;;;;;;;;;;;;;24.15;16.44;97896.97;6343943;28;20078;-69
2024/01/28 09:29:48;;;;;;;;;;;;;;;23.66;16.40;97884.03;6344118;28;19924;-69
2024/01/28 09:32:54;;;;;;;;;;;;;;;23.45;16.63;97888.91;6344018;28;19926;-68
2024/01/28 09:35:58;;;;;;;;;;;;;;;23.53;15.58;97880.94;6343241;28;20316;-69
2024/01/28 09:38:59;;;;;;;;;;;;;;;23.46;16.03;97879.84;6325000;28;19924;-70
2024/01/28 09:42:07;;;;;;;;;;;;;;;23.49;16.25;97879.53;6347230;28;19924;-69
2024/01/28 09:45:12;;;;;;;;;;;;;;;23.46;16.00;97874.47;6348952;28;19923;-69
2024/01/28 09:48:16;;;;;;;;;;;;;;;23.33;16.04;97872.22;6314456;28;19924;-69
2024/01/28 09:51:21;;;;;;;;;;;;;;;23.11;16.24;97876.22;6347875;28;19931;-68
2024/01/28 09:54:24;;;;;;;;;;;;;;;22.77;15.99;97874.19;6348133;28;20254;-68
2024/01/28 09:57:28;;;;;;;;;;;;;;;22.55;16.22;97870.06;6347735;28;19931;-68
2024/01/28 10:00:33;;;;;;;;;;;;;;;22.41;16.37;97867.91;6348488;28;19925;-69
2024/01/28 10:03:37;;;;;;;;;;;;;;;22.24;16.04;97866.84;6348547;28;19924;-69
2024/01/28 10:06:38;;;;;;;;;;;;;;;22.12;16.02;97868.84;6348530;28;19930;-70
2024/01/28 10:09:39;;;;;;;;;;;;;;;22.01;16.04;97869.03;6347441;28;19931;-69
2024/01/28 10:12:40;;;;;;;;;;;;;;;21.92;16.00;97870.78;6329532;28;20519;-68
2024/01/28 10:15:42;;;;;;;;;;;;;;;21.66;15.99;97861.69;6348180;28;19923;-69
2024/01/28 10:18:46;;;;;;;;;;;;;;;21.21;15.99;97864.97;6332354;28;19924;-68
2024/01/28 10:21:47;;;;;;;;;;;;;;;20.77;16.00;97867.22;6322938;28;19920;-69
2024/01/28 10:24:50;;;;;;;;;;;;;;;20.44;16.47;97869.25;6322795;28;19924;-67
2024/01/28 10:27:52;;;;;;;;;;;;;;;20.14;16.37;97870.97;6322362;28;19967;-68
2024/01/28 10:30:53;;;;;;;;;;;;;;;19.80;16.79;97880.25;6322596;28;19920;-68
2024/01/28 10:33:58;;;;;;;;;;;;;;;19.54;16.40;97880.63;6322693;28;19924;-67
2024/01/28 10:37:01;;;;;;;;;;;;;;;19.16;16.53;97876.69;6321497;28;19924;-68
2024/01/28 10:40:05;;;;;;;;;;;;;;;18.80;17.08;97872.63;6322809;28;19923;-68
2024/01/28 10:43:15;;;;;;;;;;;;;;;18.45;16.96;97875.47;6322513;28;19924;-69
2024/01/28 10:46:19;;;;;;;;;;;;;;;17.97;16.93;97870.41;6322564;28;19924;-69
2024/01/28 10:49:26;;;;;;;;;;;;;;;15.88;17.43;97875.28;6322230;28;19924;-70
2024/01/28 10:52:29;;;;;;;;;;;;;;;12.62;20.08;97873.03;6320268;28;20381;-69
2024/01/28 10:55:30;;;;;;;;;;;;;;;9.70;22.00;97860.72;6320915;28;20032;-69
2024/01/28 10:58:31;;;;;;;;;;;;;;;7.48;24.24;97865.44;6321396;28;20040;-69
2024/01/28 11:01:38;;;;;;;;;;;;;;;5.79;25.66;97858.78;6321736;28;20061;-69
2024/01/28 11:04:42;;;;;;;;;;;;;;;4.54;26.71;97862.22;6322027;28;20396;-67
2024/01/28 11:07:43;;;;;;;;;;;;;;;3.59;27.40;97870.47;6320990;28;19924;-68
2024/01/28 11:10:49;;;;;;;;;;;;;;;2.72;27.95;97869.53;6303763;28;20018;-68
2024/01/28 11:13:50;;;;;;;;;;;;;;;1.80;28.31;97872.72;6321512;28;19924;-68
2024/01/28 11:16:51;;;;;;;;;;;;;;;0.85;28.70;97873.88;6320811;28;19946;-69
2024/01/28 11:20:04;;;;;;;;;;;;;;;-0.04;29.31;97874.63;6321474;28;19923;-68
2024/01/28 11:23:13;;;;;;;;;;;;;;;-0.80;29.31;97870.72;6321586;28;19924;-67
2024/01/28 11:26:15;;;;;;;;;;;;;;;-1.41;29.83;97869.16;6321114;28;19947;-68
2024/01/28 11:29:17;;;;;;;;;;;;;;;-2.01;29.95;97873.47;6320904;28;20072;-68
2024/01/28 11:32:31;;;;;;;;;;;;;;;-2.49;30.30;97867.41;6320919;28;20017;-68
2024/01/28 11:35:34;;;;;;;;;;;;;;;-2.94;30.52;97866.38;6320913;28;19924;-67
2024/01/28 11:38:40;;;;;;;;;;;;;;;-3.22;30.68;97871.38;6320908;28;20450;-68
2024/01/28 11:41:44;;;;;;;;;;;;;;;-3.44;30.59;97870.38;6320642;28;19955;-68
2024/01/28 11:44:47;;;;;;;;;;;;;;;-3.47;30.94;97870.38;6320176;28;19928;-69
2024/01/28 11:47:48;;;;;;;;;;;;;;;-3.24;30.36;97862.78;6320055;28;20313;-68
2024/01/28 11:50:50;;;;;;;;;;;;;;;-3.36;30.19;97857.56;6320880;28;19924;-68
2024/01/28 11:53:51;;;;;;;;;;;;;;;-3.67;30.08;97852.22;6319590;28;19924;-68
2024/01/28 11:56:55;;;;;;;;;;;;;;;-4.01;30.52;97863.09;6320800;28;19924;-68
2024/01/28 11:59:58;;;;;;;;;;;;;;;-4.34;31.26;97860.22;6320575;28;20034;-69
2024/01/28 12:03:03;;;;;;;;;;;;;;;-4.69;31.07;97859.88;6320142;28;19930;-69
2024/01/28 12:06:04;;;;;;;;;;;;;;;-4.99;31.17;97879.19;6318697;28;19930;-68
2024/01/28 12:09:08;;;;;;;;;;;;;;;-5.27;31.79;97879.69;6320206;28;20351;-68
2024/01/28 12:12:09;;;;;;;;;;;;;;;-5.58;32.26;97879.22;6319841;28;20270;-68
2024/01/28 12:15:13;;;;;;;;;;;;;;;-5.86;32.54;97888.19;6320001;28;19963;-70
2024/01/28 12:18:14;;;;;;;;;;;;;;;-6.11;32.48;97884.44;6319330;28;19924;-68
2024/01/28 12:21:20;;;;;;;;;;;;;;;-6.37;32.73;97884.84;6319520;28;20313;-67
2024/01/28 12:24:28;;;;;;;;;;;;;;;-6.60;34.32;97888.66;6319105;28;19951;-68
2024/01/28 12:27:29;;;;;;;;;;;;;;;-6.79;36.87;97879.78;6319260;28;20026;-69
2024/01/28 12:30:33;;;;;;;;;;;;;;;-6.94;34.79;97884.59;6319511;28;19924;-68
2024/01/28 12:33:38;;;;;;;;;;;;;;;-7.13;35.01;97893.56;6300992;28;20523;-68
2024/01/28 12:36:42;;;;;;;;;;;;;;;-7.35;34.55;97893.13;6319401;28;19924;-70
2024/01/28 12:39:44;;;;;;;;;;;;;;;-7.60;34.91;97895.97;6318848;28;19931;-68
2024/01/28 12:42:45;;;;;;;;;;;;;;;-7.87;34.88;97902.16;6318599;28;20424;-68
2024/01/28 12:45:46;;;;;;;;;;;;;;;-8.11;34.80;97896.47;6319405;28;19973;-67
2024/01/28 12:48:49;;;;;;;;;;;;;;;-8.34;35.83;97898.44;6319125;28;19931;-68
2024/01/28 12:51:51;;;;;;;;;;;;;;;-8.55;38.35;97906.41;6318109;28;19973;-68
2024/01/28 12:54:54;;;;;;;;;;;;;;;-8.65;37.76;97906.19;6318619;28;20340;-69
2024/01/28 12:58:00;;;;;;;;;;;;;;;-8.81;36.10;97906.56;6319027;28;19938;-69
2024/01/28 13:01:04;;;;;;;;;;;;;;;-9.02;36.21;97904.31;6318924;28;19924;-68
2024/01/28 13:04:13;;;;;;;;;;;;;;;-9.23;36.74;97907.09;6319231;28;20007;-69
2024/01/28 13:07:14;;;;;;;;;;;;;;;-9.40;38.27;97903.19;6300542;28;19924;-69
2024/01/28 13:10:18;;;;;;;;;;;;;;;-9.53;37.67;97907.91;6318692;28;19939;-69
2024/01/28 13:13:20;;;;;;;;;;;;;;;-9.63;37.28;97908.44;6319084;28;20566;-68
2024/01/28 13:16:23;;;;;;;;;;;;;;;-9.79;37.26;97913.91;6318036;28;19931;-68
2024/01/28 13:19:31;;;;;;;;;;;;;;;-9.99;36.98;97914.13;6341124;28;19923;-68
2024/01/28 13:22:35;;;;;;;;;;;;;;;-10.17;36.95;97916.94;6344374;28;20405;-69
2024/01/28 13:25:36;;;;;;;;;;;;;;;-10.32;37.12;97905.44;6344065;28;20365;-67
2024/01/28 13:28:38;;;;;;;;;;;;;;;-10.48;37.22;97912.53;6344465;28;19931;-68
2024/01/28 13:31:39;;;;;;;;;;;;;;;-10.62;37.58;97922.22;6326099;28;19924;-68
2024/01/28 13:34:42;;;;;;;;;;;;;;;-10.74;37.73;97920.94;6343929;28;20021;-68
2024/01/28 13:37:49;;;;;;;;;;;;;;;-10.88;37.93;97928.94;6344142;28;19946;-68
2024/01/28 13:40:52;;;;;;;;;;;;;;;-10.98;37.76;97926.00;6343973;28;20522;-68
2024/01/28 13:43:55;;;;;;;;;;;;;;;-11.11;38.10;97928.13;6343848;28;19924;-66
2024/01/28 13:47:00;;;;;;;;;;;;;;;-11.20;38.36;97929.47;6344101;28;19924;-68
2024/01/28 13:50:05;;;;;;;;;;;;;;;-11.27;38.88;97927.50;6344188;28;20567;-67
2024/01/28 13:53:09;;;;;;;;;;;;;;;-11.36;38.34;97928.88;6343440;28;20308;-68
2024/01/28 13:56:11;;;;;;;;;;;;;;;-11.48;38.00;97928.44;6343336;28;20510;-67
2024/01/28 13:59:13;;;;;;;;;;;;;;;-11.59;38.49;97929.69;6342959;28;19928;-67
2024/01/28 14:02:16;;;;;;;;;;;;;;;-11.70;38.70;97931.81;6342682;28;20026;-67
2024/01/28 14:05:19;;;;;;;;;;;;;;;-11.78;38.97;97923.88;6343042;28;20044;-68
2024/01/28 14:08:21;;;;;;;;;;;;;;;-11.87;38.80;97918.50;6342595;28;19927;-68
2024/01/28 14:11:24;;;;;;;;;;;;;;;-11.91;39.14;97916.66;6343557;28;19924;-68
2024/01/28 14:14:27;;;;;;;;;;;;;;;-11.99;38.59;97913.81;6343412;28;20320;-67
2024/01/28 14:17:33;;;;;;;;;;;;;;;-12.06;38.78;97921.09;6343682;28;19923;-69
2024/01/28 14:20:36;;;;;;;;;;;;;;;-12.16;39.82;97903.78;6343670;28;19924;-69
2024/01/28 14:23:40;;;;;;;;;;;;;;;-12.18;38.83;97901.19;6342623;28;19931;-67
2024/01/28 14:26:40;;;;;;;;;;;;;;;-12.26;39.10;97913.53;6345708;28;20319;-69
2024/01/28 14:29:44;;;;;;;;;;;;;;;-12.34;40.66;97914.03;6347192;28;20006;-67
2024/01/28 14:32:47;;;;;;;;;;;;;;;-12.34;39.50;97920.00;6347265;28;19946;-68
2024/01/28 14:35:51;;;;;;;;;;;;;;;-12.41;40.05;97917.16;6348005;28;20388;-68
2024/01/28 14:38:59;;;;;;;;;;;;;;;-12.49;39.58;97930.34;6347986;28;19924;-68
2024/01/28 14:42:07;;;;;;;;;;;;;;;-12.57;39.22;97923.22;6348185;28;19966;-68
2024/01/28 14:45:08;;;;;;;;;;;;;;;-12.67;39.90;97925.38;6347077;28;19923;-67
2024/01/28 14:48:15;;;;;;;;;;;;;;;-12.70;40.56;97919.34;6329244;28;19981;-69
2024/01/28 14:51:16;;;;;;;;;;;;;;;-12.75;40.49;97921.66;6347544;28;19924;-69
2024/01/28 14:54:21;;;;;;;;;;;;;;;-12.78;40.36;97930.81;6347429;28;19924;-68
2024/01/28 14:57:22;;;;;;;;;;;;;;;-12.85;40.24;97924.59;6347252;28;20006;-68
2024/01/28 15:00:24;;;;;;;;;;;;;;;-12.91;39.65;97934.47;6328507;28;19924;-67
2024/01/28 15:03:25;;;;;;;;;;;;;;;-13.00;40.30;97929.00;6347345;28;20511;-68
2024/01/28 15:06:28;;;;;;;;;;;;;;;-13.11;40.20;97937.00;6347377;28;19924;-69
2024/01/28 15:09:32;;;;;;;;;;;;;;;-13.21;40.59;97936.53;6347078;28;19930;-68
2024/01/28 15:12:35;;;;;;;;;;;;;;;-13.29;40.73;97936.22;6329368;28;19928;-68
2024/01/28 15:15:38;;;;;;;;;;;;;;;-13.35;40.35;97933.41;6346981;28;19924;-68
2024/01/28 15:18:42;;;;;;;;;;;;;;;-13.42;40.20;97946.56;6347026;28;19931;-69
2024/01/28 15:21:46;;;;;;;;;;;;;;;-13.50;40.18;97940.28;6347188;28;19963;-69
2024/01/28 15:24:49;;;;;;;;;;;;;;;-13.53;40.77;97947.75;6346607;28;20420;-68
2024/01/28 15:27:50;;;;;;;;;;;;;;;-13.54;41.31;97949.41;6346518;28;19927;-68
2024/01/28 15:30:54;;;;;;;;;;;;;;;-13.57;41.32;97950.16;6347072;28;19923;-68
2024/01/28 15:33:58;;;;;;;;;;;;;;;-13.55;42.52;97946.84;6346573;28;19919;-69
2024/01/28 15:37:02;;;;;;;;;;;;;;;-13.55;40.62;97946.84;6345565;28;19985;-67
2024/01/28 15:40:07;;;;;;;;;;;;;;;-13.65;40.50;97946.38;6345203;28;19923;-68
2024/01/28 15:43:11;;;;;;;;;;;;;;;-13.74;40.83;97943.44;6346109;28;19924;-67
2024/01/28 15:46:14;;;;;;;;;;;;;;;-13.82;40.71;97944.75;6346244;28;20416;-66